sensor_id;sensor_type;location;lat;lon;timestamp;P1;durP1;ratioP1;P2;durP2;ratioP2
7575;SDS011;3829;50.798;4.358;2024-03-23T00:54:33;6.20;;;3.33;;
7575;SDS011;3829;50.798;4.358;2024-03-23T00:56:59;13.50;;;3.30;;
7575;SDS011;3829;50.798;4.358;2024-03-23T00:59:24;12.80;;;4.00;;
7575;SDS011;3829;50.798;4.358;2024-03-23T01:01:53;10.40;;;3.10;;
7575;SDS011;3829;50.798;4.358;2024-03-23T01:04:19;10.30;;;3.97;;
7575;SDS011;3829;50.798;4.358;2024-03-23T01:06:45;5.40;;;3.40;;
7575;SDS011;3829;50.798;4.358;2024-03-23T01:09:10;12.87;;;3.20;;
7575;SDS011;3829;50.798;4.358;2024-03-23T01:11:36;10.27;;;3.60;;
7575;SDS011;3829;50.798;4.358;2024-03-23T01:14:02;10.73;;;4.07;;
7575;SDS011;3829;50.798;4.358;2024-03-23T01:16:28;12.63;;;3.77;;
7575;SDS011;3829;50.798;4.358;2024-03-23T01:18:53;13.17;;;4.33;;
7575;SDS011;3829;50.798;4.358;2024-03-23T01:21:19;17.20;;;4.13;;
7575;SDS011;3829;50.798;4.358;2024-03-23T01:23:44;19.03;;;4.03;;
7575;SDS011;3829;50.798;4.358;2024-03-23T01:26:10;14.77;;;4.70;;
7575;SDS011;3829;50.798;4.358;2024-03-23T01:28:35;11.27;;;4.30;;
7575;SDS011;3829;50.798;4.358;2024-03-23T01:31:01;15.70;;;4.53;;
7575;SDS011;3829;50.798;4.358;2024-03-23T01:33:27;12.47;;;3.73;;
7575;SDS011;3829;50.798;4.358;2024-03-23T01:35:52;13.63;;;5.10;;
7575;SDS011;3829;50.798;4.358;2024-03-23T01:38:18;9.70;;;3.67;;
7575;SDS011;3829;50.798;4.358;2024-03-23T01:40:43;9.30;;;3.60;;
7575;SDS011;3829;50.798;4.358;2024-03-23T01:43:09;16.33;;;4.70;;
7575;SDS011;3829;50.798;4.358;2024-03-23T01:45:34;13.47;;;4.70;;
7575;SDS011;3829;50.798;4.358;2024-03-23T01:48:00;8.07;;;3.93;;
7575;SDS011;3829;50.798;4.358;2024-03-23T01:50:27;10.67;;;4.07;;
7575;SDS011;3829;50.798;4.358;2024-03-23T01:52:53;13.07;;;4.33;;
7575;SDS011;3829;50.798;4.358;2024-03-23T01:55:19;13.80;;;4.63;;
7575;SDS011;3829;50.798;4.358;2024-03-23T01:57:45;15.53;;;5.30;;
7575;SDS011;3829;50.798;4.358;2024-03-23T02:00:11;16.80;;;5.50;;
7575;SDS011;3829;50.798;4.358;2024-03-23T02:02:41;13.13;;;5.00;;
7575;SDS011;3829;50.798;4.358;2024-03-23T02:05:08;15.37;;;5.90;;
7575;SDS011;3829;50.798;4.358;2024-03-23T02:07:33;12.67;;;5.57;;
7575;SDS011;3829;50.798;4.358;2024-03-23T02:09:59;16.80;;;5.53;;
7575;SDS011;3829;50.798;4.358;2024-03-23T02:12:26;18.60;;;6.57;;
7575;SDS011;3829;50.798;4.358;2024-03-23T02:14:51;15.63;;;5.83;;
7575;SDS011;3829;50.798;4.358;2024-03-23T02:17:17;19.00;;;6.23;;
7575;SDS011;3829;50.798;4.358;2024-03-23T02:19:42;15.90;;;5.80;;
7575;SDS011;3829;50.798;4.358;2024-03-23T02:22:08;15.87;;;6.00;;
7575;SDS011;3829;50.798;4.358;2024-03-23T02:24:35;18.43;;;6.37;;
7575;SDS011;3829;50.798;4.358;2024-03-23T02:27:02;18.13;;;7.13;;
7575;SDS011;3829;50.798;4.358;2024-03-23T02:29:28;21.07;;;6.83;;
7575;SDS011;3829;50.798;4.358;2024-03-23T02:31:53;13.80;;;6.87;;
7575;SDS011;3829;50.798;4.358;2024-03-23T02:34:19;16.77;;;6.70;;
7575;SDS011;3829;50.798;4.358;2024-03-23T02:36:44;19.33;;;7.87;;
7575;SDS011;3829;50.798;4.358;2024-03-23T02:39:10;15.37;;;7.17;;
7575;SDS011;3829;50.798;4.358;2024-03-23T02:41:36;16.97;;;6.87;;
7575;SDS011;3829;50.798;4.358;2024-03-23T02:44:02;19.47;;;7.87;;
7575;SDS011;3829;50.798;4.358;2024-03-23T02:46:27;19.47;;;7.70;;
7575;SDS011;3829;50.798;4.358;2024-03-23T02:48:53;19.63;;;9.07;;
7575;SDS011;3829;50.798;4.358;2024-03-23T02:51:18;18.07;;;7.70;;
7575;SDS011;3829;50.798;4.358;2024-03-23T02:53:44;28.83;;;8.93;;
7575;SDS011;3829;50.798;4.358;2024-03-23T02:56:09;18.33;;;8.03;;
7575;SDS011;3829;50.798;4.358;2024-03-23T02:58:40;22.53;;;8.07;;
7575;SDS011;3829;50.798;4.358;2024-03-23T03:01:07;18.70;;;9.10;;
7575;SDS011;3829;50.798;4.358;2024-03-23T03:03:33;22.13;;;9.33;;
7575;SDS011;3829;50.798;4.358;2024-03-23T03:05:58;28.87;;;9.13;;
7575;SDS011;3829;50.798;4.358;2024-03-23T03:08:24;25.57;;;8.93;;
7575;SDS011;3829;50.798;4.358;2024-03-23T03:10:49;27.03;;;10.03;;
7575;SDS011;3829;50.798;4.358;2024-03-23T03:13:15;31.93;;;9.23;;
7575;SDS011;3829;50.798;4.358;2024-03-23T03:15:41;23.00;;;8.80;;
7575;SDS011;3829;50.798;4.358;2024-03-23T03:18:08;25.87;;;9.57;;
7575;SDS011;3829;50.798;4.358;2024-03-23T03:20:34;25.97;;;10.20;;
7575;SDS011;3829;50.798;4.358;2024-03-23T03:23:04;20.50;;;9.73;;
7575;SDS011;3829;50.798;4.358;2024-03-23T03:25:30;24.37;;;10.50;;
7575;SDS011;3829;50.798;4.358;2024-03-23T03:27:55;22.87;;;10.47;;
7575;SDS011;3829;50.798;4.358;2024-03-23T03:30:21;32.03;;;10.83;;
7575;SDS011;3829;50.798;4.358;2024-03-23T03:32:46;26.07;;;10.97;;
7575;SDS011;3829;50.798;4.358;2024-03-23T03:35:12;25.37;;;11.67;;
7575;SDS011;3829;50.798;4.358;2024-03-23T03:37:37;29.23;;;11.23;;
7575;SDS011;3829;50.798;4.358;2024-03-23T03:40:03;26.70;;;10.63;;
7575;SDS011;3829;50.798;4.358;2024-03-23T03:42:29;24.97;;;11.47;;
7575;SDS011;3829;50.798;4.358;2024-03-23T03:44:54;29.63;;;11.87;;
7575;SDS011;3829;50.798;4.358;2024-03-23T03:47:20;20.60;;;10.63;;
7575;SDS011;3829;50.798;4.358;2024-03-23T03:49:45;24.73;;;11.53;;
7575;SDS011;3829;50.798;4.358;2024-03-23T03:52:12;25.00;;;10.37;;
7575;SDS011;3829;50.798;4.358;2024-03-23T03:54:37;28.17;;;11.67;;
7575;SDS011;3829;50.798;4.358;2024-03-23T03:57:03;24.87;;;11.60;;
7575;SDS011;3829;50.798;4.358;2024-03-23T03:59:29;26.47;;;11.53;;
7575;SDS011;3829;50.798;4.358;2024-03-23T04:01:54;23.23;;;11.60;;
7575;SDS011;3829;50.798;4.358;2024-03-23T04:04:20;35.60;;;11.20;;
7575;SDS011;3829;50.798;4.358;2024-03-23T04:06:47;29.50;;;12.17;;
7575;SDS011;3829;50.798;4.358;2024-03-23T04:09:13;21.83;;;11.87;;
7575;SDS011;3829;50.798;4.358;2024-03-23T04:11:38;31.43;;;12.23;;
7575;SDS011;3829;50.798;4.358;2024-03-23T04:14:04;31.57;;;12.27;;
7575;SDS011;3829;50.798;4.358;2024-03-23T04:16:32;25.33;;;11.50;;
7575;SDS011;3829;50.798;4.358;2024-03-23T04:18:59;33.63;;;12.73;;
7575;SDS011;3829;50.798;4.358;2024-03-23T04:21:25;25.03;;;10.90;;
7575;SDS011;3829;50.798;4.358;2024-03-23T04:23:50;26.63;;;10.23;;
7575;SDS011;3829;50.798;4.358;2024-03-23T04:26:16;24.17;;;11.57;;
7575;SDS011;3829;50.798;4.358;2024-03-23T04:28:42;24.67;;;11.17;;
7575;SDS011;3829;50.798;4.358;2024-03-23T04:31:08;31.53;;;10.43;;
7575;SDS011;3829;50.798;4.358;2024-03-23T04:33:33;21.77;;;9.37;;
7575;SDS011;3829;50.798;4.358;2024-03-23T04:35:59;23.83;;;10.50;;
7575;SDS011;3829;50.798;4.358;2024-03-23T04:38:24;21.90;;;9.37;;
7575;SDS011;3829;50.798;4.358;2024-03-23T04:40:54;23.33;;;9.60;;
7575;SDS011;3829;50.798;4.358;2024-03-23T04:43:23;23.97;;;8.97;;
7575;SDS011;3829;50.798;4.358;2024-03-23T04:45:49;20.90;;;8.93;;
7575;SDS011;3829;50.798;4.358;2024-03-23T04:48:15;17.63;;;8.87;;
7575;SDS011;3829;50.798;4.358;2024-03-23T04:50:40;20.33;;;8.37;;
7575;SDS011;3829;50.798;4.358;2024-03-23T04:53:06;16.73;;;8.63;;
7575;SDS011;3829;50.798;4.358;2024-03-23T04:55:32;15.30;;;7.37;;
7575;SDS011;3829;50.798;4.358;2024-03-23T04:57:58;25.83;;;8.77;;
7575;SDS011;3829;50.798;4.358;2024-03-23T05:00:23;16.20;;;7.07;;
7575;SDS011;3829;50.798;4.358;2024-03-23T05:02:50;18.43;;;6.53;;
7575;SDS011;3829;50.798;4.358;2024-03-23T05:05:15;14.03;;;6.87;;
7575;SDS011;3829;50.798;4.358;2024-03-23T05:07:41;18.07;;;7.20;;
7575;SDS011;3829;50.798;4.358;2024-03-23T05:10:07;17.10;;;6.60;;
7575;SDS011;3829;50.798;4.358;2024-03-23T05:12:36;18.30;;;6.23;;
7575;SDS011;3829;50.798;4.358;2024-03-23T05:15:03;20.73;;;7.03;;
7575;SDS011;3829;50.798;4.358;2024-03-23T05:17:30;14.37;;;7.60;;
7575;SDS011;3829;50.798;4.358;2024-03-23T05:19:57;11.93;;;6.70;;
7575;SDS011;3829;50.798;4.358;2024-03-23T05:22:22;19.70;;;8.00;;
7575;SDS011;3829;50.798;4.358;2024-03-23T05:24:48;17.70;;;7.90;;
7575;SDS011;3829;50.798;4.358;2024-03-23T05:27:14;22.77;;;7.90;;
7575;SDS011;3829;50.798;4.358;2024-03-23T05:29:40;22.13;;;7.50;;
7575;SDS011;3829;50.798;4.358;2024-03-23T05:32:05;18.60;;;7.43;;
7575;SDS011;3829;50.798;4.358;2024-03-23T05:34:31;11.93;;;5.97;;
7575;SDS011;3829;50.798;4.358;2024-03-23T05:36:56;14.57;;;6.57;;
7575;SDS011;3829;50.798;4.358;2024-03-23T05:39:22;15.03;;;6.37;;
7575;SDS011;3829;50.798;4.358;2024-03-23T05:41:48;18.10;;;6.67;;
7575;SDS011;3829;50.798;4.358;2024-03-23T05:44:14;19.13;;;6.23;;
7575;SDS011;3829;50.798;4.358;2024-03-23T05:46:40;16.67;;;6.00;;
7575;SDS011;3829;50.798;4.358;2024-03-23T05:49:06;17.57;;;5.80;;
7575;SDS011;3829;50.798;4.358;2024-03-23T05:51:31;12.07;;;5.67;;
7575;SDS011;3829;50.798;4.358;2024-03-23T05:53:57;13.80;;;5.00;;
7575;SDS011;3829;50.798;4.358;2024-03-23T05:56:22;14.40;;;4.63;;
7575;SDS011;3829;50.798;4.358;2024-03-23T05:58:48;16.57;;;4.47;;
7575;SDS011;3829;50.798;4.358;2024-03-23T06:01:13;23.43;;;5.10;;
7575;SDS011;3829;50.798;4.358;2024-03-23T06:03:39;9.93;;;4.23;;
7575;SDS011;3829;50.798;4.358;2024-03-23T06:06:04;9.23;;;4.00;;
7575;SDS011;3829;50.798;4.358;2024-03-23T06:08:35;13.53;;;4.37;;
7575;SDS011;3829;50.798;4.358;2024-03-23T06:11:01;14.30;;;3.70;;
7575;SDS011;3829;50.798;4.358;2024-03-23T06:13:26;9.53;;;4.00;;
7575;SDS011;3829;50.798;4.358;2024-03-23T06:15:54;11.00;;;3.33;;
7575;SDS011;3829;50.798;4.358;2024-03-23T06:18:20;18.03;;;4.10;;
7575;SDS011;3829;50.798;4.358;2024-03-23T06:20:46;11.00;;;3.90;;
7575;SDS011;3829;50.798;4.358;2024-03-23T06:23:11;9.87;;;3.37;;
7575;SDS011;3829;50.798;4.358;2024-03-23T06:25:37;9.17;;;3.03;;
7575;SDS011;3829;50.798;4.358;2024-03-23T06:28:03;6.93;;;2.60;;
7575;SDS011;3829;50.798;4.358;2024-03-23T06:30:29;12.63;;;2.83;;
7575;SDS011;3829;50.798;4.358;2024-03-23T06:32:56;8.80;;;2.80;;
7575;SDS011;3829;50.798;4.358;2024-03-23T06:35:22;16.30;;;3.13;;
7575;SDS011;3829;50.798;4.358;2024-03-23T06:37:47;11.00;;;2.97;;
7575;SDS011;3829;50.798;4.358;2024-03-23T06:40:13;17.27;;;2.97;;
7575;SDS011;3829;50.798;4.358;2024-03-23T06:42:39;15.87;;;3.73;;
7575;SDS011;3829;50.798;4.358;2024-03-23T06:45:05;9.73;;;3.67;;
7575;SDS011;3829;50.798;4.358;2024-03-23T06:47:31;12.50;;;3.47;;
7575;SDS011;3829;50.798;4.358;2024-03-23T06:49:57;8.50;;;2.77;;
7575;SDS011;3829;50.798;4.358;2024-03-23T06:52:24;12.80;;;3.30;;
7575;SDS011;3829;50.798;4.358;2024-03-23T06:54:49;11.57;;;2.83;;
7575;SDS011;3829;50.798;4.358;2024-03-23T06:57:15;12.93;;;2.50;;
7575;SDS011;3829;50.798;4.358;2024-03-23T06:59:40;7.97;;;2.73;;
7575;SDS011;3829;50.798;4.358;2024-03-23T07:02:06;8.80;;;2.70;;
7575;SDS011;3829;50.798;4.358;2024-03-23T07:04:33;14.37;;;3.17;;
7575;SDS011;3829;50.798;4.358;2024-03-23T07:06:59;15.40;;;3.10;;
7575;SDS011;3829;50.798;4.358;2024-03-23T07:09:26;10.30;;;2.80;;
7575;SDS011;3829;50.798;4.358;2024-03-23T07:11:54;8.50;;;2.23;;
7575;SDS011;3829;50.798;4.358;2024-03-23T07:14:23;8.07;;;2.50;;
7575;SDS011;3829;50.798;4.358;2024-03-23T07:16:49;9.83;;;2.60;;
7575;SDS011;3829;50.798;4.358;2024-03-23T07:19:15;10.03;;;2.50;;
7575;SDS011;3829;50.798;4.358;2024-03-23T07:21:42;13.53;;;2.93;;
7575;SDS011;3829;50.798;4.358;2024-03-23T07:24:08;10.33;;;2.53;;
7575;SDS011;3829;50.798;4.358;2024-03-23T07:26:34;13.70;;;3.10;;
7575;SDS011;3829;50.798;4.358;2024-03-23T07:28:59;13.50;;;2.73;;
7575;SDS011;3829;50.798;4.358;2024-03-23T07:31:25;8.07;;;2.90;;
7575;SDS011;3829;50.798;4.358;2024-03-23T07:33:50;12.00;;;3.13;;
7575;SDS011;3829;50.798;4.358;2024-03-23T07:36:16;8.97;;;2.67;;
7575;SDS011;3829;50.798;4.358;2024-03-23T07:38:42;6.80;;;2.27;;
7575;SDS011;3829;50.798;4.358;2024-03-23T07:41:10;7.17;;;2.40;;
7575;SDS011;3829;50.798;4.358;2024-03-23T07:43:37;12.80;;;2.67;;
7575;SDS011;3829;50.798;4.358;2024-03-23T07:46:04;13.87;;;3.00;;
7575;SDS011;3829;50.798;4.358;2024-03-23T07:48:30;8.23;;;2.43;;
7575;SDS011;3829;50.798;4.358;2024-03-23T07:50:57;7.73;;;2.83;;
7575;SDS011;3829;50.798;4.358;2024-03-23T07:53:25;12.97;;;2.43;;
7575;SDS011;3829;50.798;4.358;2024-03-23T07:55:52;8.27;;;2.63;;
7575;SDS011;3829;50.798;4.358;2024-03-23T07:58:20;8.97;;;2.60;;
7575;SDS011;3829;50.798;4.358;2024-03-23T08:00:45;10.80;;;3.10;;
7575;SDS011;3829;50.798;4.358;2024-03-23T08:03:11;5.73;;;2.47;;
7575;SDS011;3829;50.798;4.358;2024-03-23T08:05:37;8.53;;;2.53;;
7575;SDS011;3829;50.798;4.358;2024-03-23T08:08:02;10.43;;;3.27;;
7575;SDS011;3829;50.798;4.358;2024-03-23T08:10:28;12.13;;;3.10;;
7575;SDS011;3829;50.798;4.358;2024-03-23T08:12:53;12.60;;;2.77;;
7575;SDS011;3829;50.798;4.358;2024-03-23T08:15:19;13.00;;;2.50;;
7575;SDS011;3829;50.798;4.358;2024-03-23T08:17:44;11.10;;;2.77;;
7575;SDS011;3829;50.798;4.358;2024-03-23T08:20:10;7.93;;;3.00;;
7575;SDS011;3829;50.798;4.358;2024-03-23T08:22:36;9.67;;;2.73;;
7575;SDS011;3829;50.798;4.358;2024-03-23T08:25:01;6.73;;;2.23;;
7575;SDS011;3829;50.798;4.358;2024-03-23T08:27:27;11.17;;;3.27;;
7575;SDS011;3829;50.798;4.358;2024-03-23T08:29:52;17.87;;;3.23;;
7575;SDS011;3829;50.798;4.358;2024-03-23T08:32:18;6.80;;;2.17;;
7575;SDS011;3829;50.798;4.358;2024-03-23T08:34:43;11.60;;;2.70;;
7575;SDS011;3829;50.798;4.358;2024-03-23T08:37:10;13.20;;;3.03;;
7575;SDS011;3829;50.798;4.358;2024-03-23T08:39:35;8.80;;;2.87;;
7575;SDS011;3829;50.798;4.358;2024-03-23T08:42:01;7.80;;;2.47;;
7575;SDS011;3829;50.798;4.358;2024-03-23T08:44:26;15.97;;;4.17;;
7575;SDS011;3829;50.798;4.358;2024-03-23T08:46:52;9.07;;;3.17;;
7575;SDS011;3829;50.798;4.358;2024-03-23T08:49:21;10.10;;;2.80;;
7575;SDS011;3829;50.798;4.358;2024-03-23T08:51:46;8.97;;;2.53;;
7575;SDS011;3829;50.798;4.358;2024-03-23T08:54:12;7.10;;;2.60;;
7575;SDS011;3829;50.798;4.358;2024-03-23T08:56:37;7.90;;;2.30;;
7575;SDS011;3829;50.798;4.358;2024-03-23T08:59:03;8.87;;;2.60;;
7575;SDS011;3829;50.798;4.358;2024-03-23T09:01:28;8.80;;;2.67;;
7575;SDS011;3829;50.798;4.358;2024-03-23T09:03:54;9.07;;;2.70;;
7575;SDS011;3829;50.798;4.358;2024-03-23T09:06:20;6.53;;;2.10;;
7575;SDS011;3829;50.798;4.358;2024-03-23T09:08:46;10.70;;;2.50;;
7575;SDS011;3829;50.798;4.358;2024-03-23T09:11:12;9.87;;;2.40;;
7575;SDS011;3829;50.798;4.358;2024-03-23T09:13:38;9.03;;;3.50;;
7575;SDS011;3829;50.798;4.358;2024-03-23T09:16:04;5.70;;;2.73;;
7575;SDS011;3829;50.798;4.358;2024-03-23T09:18:32;9.47;;;2.43;;
7575;SDS011;3829;50.798;4.358;2024-03-23T09:20:58;10.63;;;3.23;;
7575;SDS011;3829;50.798;4.358;2024-03-23T09:23:24;3.90;;;1.90;;
7575;SDS011;3829;50.798;4.358;2024-03-23T09:25:50;4.57;;;2.10;;
7575;SDS011;3829;50.798;4.358;2024-03-23T09:28:15;8.53;;;3.23;;
7575;SDS011;3829;50.798;4.358;2024-03-23T09:30:41;8.23;;;2.37;;
7575;SDS011;3829;50.798;4.358;2024-03-23T09:33:08;8.67;;;2.70;;
7575;SDS011;3829;50.798;4.358;2024-03-23T09:35:38;10.00;;;2.90;;
7575;SDS011;3829;50.798;4.358;2024-03-23T09:38:05;11.00;;;2.80;;
7575;SDS011;3829;50.798;4.358;2024-03-23T09:40:32;8.93;;;2.53;;
7575;SDS011;3829;50.798;4.358;2024-03-23T09:42:58;9.63;;;2.23;;
7575;SDS011;3829;50.798;4.358;2024-03-23T09:45:27;5.77;;;2.00;;
7575;SDS011;3829;50.798;4.358;2024-03-23T09:47:55;10.90;;;2.67;;
7575;SDS011;3829;50.798;4.358;2024-03-23T09:50:21;7.97;;;2.50;;
7575;SDS011;3829;50.798;4.358;2024-03-23T09:52:47;5.60;;;2.20;;
7575;SDS011;3829;50.798;4.358;2024-03-23T09:55:12;8.57;;;1.80;;
7575;SDS011;3829;50.798;4.358;2024-03-23T09:57:39;14.43;;;2.00;;
7575;SDS011;3829;50.798;4.358;2024-03-23T10:00:05;7.40;;;2.77;;
7575;SDS011;3829;50.798;4.358;2024-03-23T10:02:31;7.97;;;2.63;;
7575;SDS011;3829;50.798;4.358;2024-03-23T10:04:58;9.47;;;2.40;;
7575;SDS011;3829;50.798;4.358;2024-03-23T10:07:25;7.70;;;2.70;;
7575;SDS011;3829;50.798;4.358;2024-03-23T10:09:53;7.20;;;2.67;;
7575;SDS011;3829;50.798;4.358;2024-03-23T10:12:19;8.03;;;2.73;;
7575;SDS011;3829;50.798;4.358;2024-03-23T10:14:45;6.40;;;2.33;;
7575;SDS011;3829;50.798;4.358;2024-03-23T10:17:12;8.77;;;2.00;;
7575;SDS011;3829;50.798;4.358;2024-03-23T10:19:45;10.13;;;2.30;;
7575;SDS011;3829;50.798;4.358;2024-03-23T10:22:14;8.83;;;2.07;;
7575;SDS011;3829;50.798;4.358;2024-03-23T10:24:42;3.97;;;1.53;;
7575;SDS011;3829;50.798;4.358;2024-03-23T10:27:08;3.87;;;2.17;;
7575;SDS011;3829;50.798;4.358;2024-03-23T10:29:33;3.67;;;2.17;;
7575;SDS011;3829;50.798;4.358;2024-03-23T10:34:35;4.27;;;1.97;;
7575;SDS011;3829;50.798;4.358;2024-03-23T10:37:02;4.17;;;1.77;;
7575;SDS011;3829;50.798;4.358;2024-03-23T10:39:30;10.13;;;2.10;;
7575;SDS011;3829;50.798;4.358;2024-03-23T10:42:05;6.17;;;2.00;;
7575;SDS011;3829;50.798;4.358;2024-03-23T10:44:32;8.97;;;2.10;;
7575;SDS011;3829;50.798;4.358;2024-03-23T10:46:58;6.50;;;1.83;;
7575;SDS011;3829;50.798;4.358;2024-03-23T10:49:26;6.60;;;1.40;;
7575;SDS011;3829;50.798;4.358;2024-03-23T10:51:54;5.37;;;1.60;;
7575;SDS011;3829;50.798;4.358;2024-03-23T10:54:21;7.30;;;1.30;;
7575;SDS011;3829;50.798;4.358;2024-03-23T10:56:49;5.27;;;1.60;;
7575;SDS011;3829;50.798;4.358;2024-03-23T10:59:20;5.57;;;1.60;;
7575;SDS011;3829;50.798;4.358;2024-03-23T11:01:54;6.37;;;1.40;;
7575;SDS011;3829;50.798;4.358;2024-03-23T11:04:33;9.97;;;2.07;;
7575;SDS011;3829;50.798;4.358;2024-03-23T11:07:00;6.50;;;1.63;;
7575;SDS011;3829;50.798;4.358;2024-03-23T11:14:53;10.83;;;2.40;;
7575;SDS011;3829;50.798;4.358;2024-03-23T11:17:29;5.70;;;1.50;;
7575;SDS011;3829;50.798;4.358;2024-03-23T11:19:57;4.50;;;2.10;;
7575;SDS011;3829;50.798;4.358;2024-03-23T11:22:37;4.63;;;1.50;;
7575;SDS011;3829;50.798;4.358;2024-03-23T11:25:14;1.70;;;1.33;;
7575;SDS011;3829;50.798;4.358;2024-03-23T11:27:42;6.10;;;1.40;;
7575;SDS011;3829;50.798;4.358;2024-03-23T11:30:09;10.23;;;2.00;;
7575;SDS011;3829;50.798;4.358;2024-03-23T11:32:37;5.30;;;1.43;;
7575;SDS011;3829;50.798;4.358;2024-03-23T11:35:02;3.33;;;1.40;;
7575;SDS011;3829;50.798;4.358;2024-03-23T11:37:28;8.10;;;1.50;;
7575;SDS011;3829;50.798;4.358;2024-03-23T11:39:54;7.80;;;1.37;;
7575;SDS011;3829;50.798;4.358;2024-03-23T11:42:19;4.63;;;1.40;;
7575;SDS011;3829;50.798;4.358;2024-03-23T11:44:46;6.30;;;1.93;;
7575;SDS011;3829;50.798;4.358;2024-03-23T11:47:12;3.67;;;1.10;;
7575;SDS011;3829;50.798;4.358;2024-03-23T11:49:38;7.53;;;2.10;;
7575;SDS011;3829;50.798;4.358;2024-03-23T11:52:06;3.80;;;1.10;;
7575;SDS011;3829;50.798;4.358;2024-03-23T11:54:32;7.07;;;1.67;;
7575;SDS011;3829;50.798;4.358;2024-03-23T11:57:00;4.10;;;1.50;;
7575;SDS011;3829;50.798;4.358;2024-03-23T11:59:33;10.57;;;1.70;;
7575;SDS011;3829;50.798;4.358;2024-03-23T12:02:00;10.67;;;1.93;;
7575;SDS011;3829;50.798;4.358;2024-03-23T12:04:27;3.93;;;1.53;;
7575;SDS011;3829;50.798;4.358;2024-03-23T12:07:08;2.13;;;1.20;;
7575;SDS011;3829;50.798;4.358;2024-03-23T12:09:39;4.80;;;2.00;;
7575;SDS011;3829;50.798;4.358;2024-03-23T12:12:07;8.10;;;2.10;;
7575;SDS011;3829;50.798;4.358;2024-03-23T12:14:35;10.30;;;1.97;;
7575;SDS011;3829;50.798;4.358;2024-03-23T12:17:09;12.33;;;2.23;;
7575;SDS011;3829;50.798;4.358;2024-03-23T12:19:36;6.53;;;1.57;;
7575;SDS011;3829;50.798;4.358;2024-03-23T12:22:03;3.80;;;1.37;;
7575;SDS011;3829;50.798;4.358;2024-03-23T12:24:31;6.93;;;1.47;;
7575;SDS011;3829;50.798;4.358;2024-03-23T12:27:00;3.30;;;1.47;;
7575;SDS011;3829;50.798;4.358;2024-03-23T12:29:29;4.40;;;1.40;;
7575;SDS011;3829;50.798;4.358;2024-03-23T12:31:56;3.30;;;1.33;;
7575;SDS011;3829;50.798;4.358;2024-03-23T12:34:26;6.33;;;1.50;;
7575;SDS011;3829;50.798;4.358;2024-03-23T12:36:52;4.33;;;1.50;;
7575;SDS011;3829;50.798;4.358;2024-03-23T12:39:18;5.57;;;1.43;;
7575;SDS011;3829;50.798;4.358;2024-03-23T12:41:45;3.03;;;1.73;;
7575;SDS011;3829;50.798;4.358;2024-03-23T12:44:11;2.77;;;1.40;;
7575;SDS011;3829;50.798;4.358;2024-03-23T12:46:37;5.80;;;1.40;;
7575;SDS011;3829;50.798;4.358;2024-03-23T12:49:03;4.33;;;1.47;;
7575;SDS011;3829;50.798;4.358;2024-03-23T12:51:29;5.07;;;1.47;;
7575;SDS011;3829;50.798;4.358;2024-03-23T12:53:54;7.53;;;1.50;;
7575;SDS011;3829;50.798;4.358;2024-03-23T12:56:20;5.67;;;1.37;;
7575;SDS011;3829;50.798;4.358;2024-03-23T12:58:45;4.40;;;1.50;;
7575;SDS011;3829;50.798;4.358;2024-03-23T13:01:16;10.03;;;2.10;;
7575;SDS011;3829;50.798;4.358;2024-03-23T13:03:42;3.83;;;1.37;;
7575;SDS011;3829;50.798;4.358;2024-03-23T13:06:11;7.20;;;1.30;;
7575;SDS011;3829;50.798;4.358;2024-03-23T13:08:36;2.40;;;1.17;;
7575;SDS011;3829;50.798;4.358;2024-03-23T13:11:02;4.83;;;1.40;;
7575;SDS011;3829;50.798;4.358;2024-03-23T13:13:28;4.57;;;1.17;;
7575;SDS011;3829;50.798;4.358;2024-03-23T13:15:53;3.57;;;1.30;;
7575;SDS011;3829;50.798;4.358;2024-03-23T13:18:19;1.27;;;1.00;;
7575;SDS011;3829;50.798;4.358;2024-03-23T13:20:44;3.73;;;1.20;;
7575;SDS011;3829;50.798;4.358;2024-03-23T13:23:10;5.07;;;1.13;;
7575;SDS011;3829;50.798;4.358;2024-03-23T13:25:35;2.53;;;1.13;;
7575;SDS011;3829;50.798;4.358;2024-03-23T13:28:02;3.63;;;1.53;;
7575;SDS011;3829;50.798;4.358;2024-03-23T13:30:28;2.50;;;1.13;;
7575;SDS011;3829;50.798;4.358;2024-03-23T13:32:54;5.10;;;1.47;;
7575;SDS011;3829;50.798;4.358;2024-03-23T13:35:20;6.23;;;1.10;;
7575;SDS011;3829;50.798;4.358;2024-03-23T13:37:46;4.00;;;1.00;;
7575;SDS011;3829;50.798;4.358;2024-03-23T13:40:11;3.73;;;1.53;;
7575;SDS011;3829;50.798;4.358;2024-03-23T13:42:37;3.37;;;1.33;;
7575;SDS011;3829;50.798;4.358;2024-03-23T13:45:03;3.73;;;1.00;;
7575;SDS011;3829;50.798;4.358;2024-03-23T13:47:29;4.73;;;1.37;;
7575;SDS011;3829;50.798;4.358;2024-03-23T13:49:54;1.37;;;0.90;;
7575;SDS011;3829;50.798;4.358;2024-03-23T13:52:20;1.80;;;0.97;;
7575;SDS011;3829;50.798;4.358;2024-03-23T13:54:48;4.90;;;1.37;;
7575;SDS011;3829;50.798;4.358;2024-03-23T13:57:14;1.93;;;1.10;;
7575;SDS011;3829;50.798;4.358;2024-03-23T13:59:39;6.80;;;1.43;;
7575;SDS011;3829;50.798;4.358;2024-03-23T14:02:05;6.30;;;1.60;;
7575;SDS011;3829;50.798;4.358;2024-03-23T14:04:30;6.00;;;1.20;;
7575;SDS011;3829;50.798;4.358;2024-03-23T14:06:56;2.77;;;1.10;;
7575;SDS011;3829;50.798;4.358;2024-03-23T14:09:23;3.33;;;1.23;;
7575;SDS011;3829;50.798;4.358;2024-03-23T14:11:50;2.30;;;1.10;;
7575;SDS011;3829;50.798;4.358;2024-03-23T14:14:16;3.97;;;1.50;;
7575;SDS011;3829;50.798;4.358;2024-03-23T14:16:42;2.47;;;1.10;;
7575;SDS011;3829;50.798;4.358;2024-03-23T14:19:08;3.30;;;1.50;;
7575;SDS011;3829;50.798;4.358;2024-03-23T14:21:34;3.07;;;1.27;;
7575;SDS011;3829;50.798;4.358;2024-03-23T14:23:59;7.33;;;1.30;;
7575;SDS011;3829;50.798;4.358;2024-03-23T14:26:26;2.83;;;0.90;;
7575;SDS011;3829;50.798;4.358;2024-03-23T14:28:52;3.13;;;1.13;;
7575;SDS011;3829;50.798;4.358;2024-03-23T14:31:17;3.80;;;1.20;;
7575;SDS011;3829;50.798;4.358;2024-03-23T14:33:43;5.40;;;1.47;;
7575;SDS011;3829;50.798;4.358;2024-03-23T14:36:14;5.53;;;1.37;;
7575;SDS011;3829;50.798;4.358;2024-03-23T14:38:39;3.50;;;1.10;;
7575;SDS011;3829;50.798;4.358;2024-03-23T14:41:05;4.50;;;1.43;;
7575;SDS011;3829;50.798;4.358;2024-03-23T14:43:30;3.23;;;1.10;;
7575;SDS011;3829;50.798;4.358;2024-03-23T14:48:41;1.77;;;1.10;;
7575;SDS011;3829;50.798;4.358;2024-03-23T14:51:08;4.10;;;1.20;;
7575;SDS011;3829;50.798;4.358;2024-03-23T14:53:34;4.10;;;1.30;;
7575;SDS011;3829;50.798;4.358;2024-03-23T14:56:01;3.23;;;1.40;;
7575;SDS011;3829;50.798;4.358;2024-03-23T14:58:27;5.00;;;1.07;;
7575;SDS011;3829;50.798;4.358;2024-03-23T15:00:53;5.30;;;1.60;;
7575;SDS011;3829;50.798;4.358;2024-03-23T15:03:25;3.70;;;1.57;;
7575;SDS011;3829;50.798;4.358;2024-03-23T15:05:52;4.30;;;1.57;;
7575;SDS011;3829;50.798;4.358;2024-03-23T15:08:18;3.87;;;1.50;;
7575;SDS011;3829;50.798;4.358;2024-03-23T15:10:44;5.47;;;1.73;;
7575;SDS011;3829;50.798;4.358;2024-03-23T15:13:09;3.20;;;1.30;;
7575;SDS011;3829;50.798;4.358;2024-03-23T15:15:39;4.07;;;2.20;;
7575;SDS011;3829;50.798;4.358;2024-03-23T15:18:07;3.40;;;1.43;;
7575;SDS011;3829;50.798;4.358;2024-03-23T15:20:33;4.97;;;1.43;;
7575;SDS011;3829;50.798;4.358;2024-03-23T15:23:00;3.07;;;1.20;;
7575;SDS011;3829;50.798;4.358;2024-03-23T15:25:27;10.13;;;1.57;;
7575;SDS011;3829;50.798;4.358;2024-03-23T15:27:52;4.00;;;1.53;;
7575;SDS011;3829;50.798;4.358;2024-03-23T15:30:19;1.30;;;1.10;;
7575;SDS011;3829;50.798;4.358;2024-03-23T15:32:45;2.93;;;1.13;;
7575;SDS011;3829;50.798;4.358;2024-03-23T15:35:11;6.67;;;1.73;;
7575;SDS011;3829;50.798;4.358;2024-03-23T15:37:36;1.70;;;1.10;;
7575;SDS011;3829;50.798;4.358;2024-03-23T15:40:04;5.03;;;1.40;;
7575;SDS011;3829;50.798;4.358;2024-03-23T15:42:30;5.67;;;1.97;;
7575;SDS011;3829;50.798;4.358;2024-03-23T15:44:56;3.33;;;1.40;;
7575;SDS011;3829;50.798;4.358;2024-03-23T15:47:21;5.77;;;1.33;;
7575;SDS011;3829;50.798;4.358;2024-03-23T15:49:48;3.57;;;1.07;;
7575;SDS011;3829;50.798;4.358;2024-03-23T15:52:14;5.10;;;1.27;;
7575;SDS011;3829;50.798;4.358;2024-03-23T15:54:40;4.87;;;1.27;;
7575;SDS011;3829;50.798;4.358;2024-03-23T15:57:05;5.93;;;1.50;;
7575;SDS011;3829;50.798;4.358;2024-03-23T15:59:32;8.73;;;1.57;;
7575;SDS011;3829;50.798;4.358;2024-03-23T16:01:57;5.40;;;1.63;;
7575;SDS011;3829;50.798;4.358;2024-03-23T16:04:23;6.33;;;1.20;;
7575;SDS011;3829;50.798;4.358;2024-03-23T16:06:48;2.70;;;1.37;;